Time;durP1;ratioP1;P1;durP2;ratioP2;P2;SDS_P1;SDS_P2;PMS_P1;PMS_P2;Temp;Humidity;BMP_temperature;BMP_pressure;BME280_temperature;BME280_humidity;BME280_pressure;Samples;Min_cycle;Max_cycle;Signal;HPM_P1;HPM_P2
2021/06/27 05:00:45;;;;;;;7.45;4.72;;;;;;;17.15;69.79;92778.22;5623085;24;20383;-79
2021/06/27 05:03:10;;;;;;;13.30;5.10;;;;;;;17.27;69.90;92783.63;4780713;30;20059;-79
2021/06/27 05:05:36;;;;;;;13.23;5.63;;;;;;;17.39;69.83;92774.22;4780265;30;20108;-79
2021/06/27 05:08:02;;;;;;;10.80;5.28;;;;;;;17.48;70.01;92772.28;4795658;30;20053;-79
2021/06/27 05:10:28;;;;;;;9.43;5.07;;;;;;;17.58;69.96;92776.41;4791406;29;20506;-80
2021/06/27 05:12:54;;;;;;;12.73;4.85;;;;;;;17.68;69.65;92782.13;4748397;30;20101;-80
2021/06/27 05:15:19;;;;;;;8.68;4.75;;;;;;;17.84;69.40;92777.03;4748799;30;20062;-80
2021/06/27 05:17:45;;;;;;;8.07;5.07;;;;;;;17.99;69.22;92773.03;4760942;30;20066;-80
2021/06/27 05:20:11;;;;;;;11.57;4.90;;;;;;;18.16;68.84;92774.75;4761479;30;20507;-80
2021/06/27 05:22:37;;;;;;;10.30;4.75;;;;;;;18.34;68.39;92778.00;4759678;30;20055;-79
2021/06/27 05:25:03;;;;;;;12.25;4.75;;;;;;;18.50;67.82;92778.91;4776762;30;20376;-79
2021/06/27 05:27:29;;;;;;;9.40;4.88;;;;;;;18.64;66.77;92777.84;4762321;30;20059;-79
2021/06/27 05:29:54;;;;;;;6.45;4.50;;;;;;;18.76;66.69;92780.53;4753151;30;20044;-79
2021/06/27 05:32:20;;;;;;;8.90;4.57;;;;;;;18.87;66.62;92792.28;4757989;30;20526;-78
2021/06/27 05:34:45;;;;;;;12.93;4.57;;;;;;;18.93;66.21;92795.50;4775053;30;20059;-80
2021/06/27 05:37:11;;;;;;;7.97;4.90;;;;;;;18.99;65.56;92804.03;4776878;30;20047;-79
2021/06/27 05:39:37;;;;;;;9.02;4.93;;;;;;;19.11;65.10;92801.38;4777048;30;20056;-80
2021/06/27 05:42:03;;;;;;;9.55;4.50;;;;;;;19.17;64.85;92800.06;4760994;30;20058;-79
2021/06/27 05:44:28;;;;;;;8.20;4.70;;;;;;;19.26;64.76;92807.91;4757686;30;20059;-79
2021/06/27 05:46:54;;;;;;;11.15;4.70;;;;;;;19.60;63.63;92817.28;4779226;30;20051;-80
2021/06/27 05:49:20;;;;;;;10.70;4.75;;;;;;;21.00;59.00;92818.47;4780149;30;20055;-79
2021/06/27 05:51:45;;;;;;;10.20;4.57;;;;;;;22.10;54.42;92822.09;4778551;30;20052;-80
2021/06/27 05:54:11;;;;;;;10.55;5.20;;;;;;;23.02;52.15;92817.03;4754496;30;20146;-79
2021/06/27 05:56:37;;;;;;;8.60;4.55;;;;;;;24.85;47.48;92816.09;4761035;30;20067;-79
2021/06/27 05:59:04;;;;;;;9.05;4.47;;;;;;;25.71;45.58;92816.81;4758025;30;20059;-78
2021/06/27 06:01:30;;;;;;;6.97;4.20;;;;;;;24.15;49.32;92815.66;4742505;30;20072;-79
2021/06/27 06:03:56;;;;;;;6.72;3.97;;;;;;;23.03;51.76;92815.91;4757538;30;20512;-79
2021/06/27 06:06:22;;;;;;;12.02;4.38;;;;;;;23.04;52.95;92804.09;4759997;30;20105;-79
2021/06/27 06:08:47;;;;;;;7.25;4.10;;;;;;;23.58;52.30;92804.94;4744549;30;20112;-78
2021/06/27 06:11:15;;;;;;;7.95;4.07;;;;;;;25.49;46.65;92799.84;4759704;30;20056;-78
2021/06/27 06:13:42;;;;;;;7.20;3.97;;;;;;;27.02;41.95;92798.25;4761118;30;20139;-78
2021/06/27 06:16:08;;;;;;;9.23;4.28;;;;;;;27.02;42.45;92801.72;4762151;30;20048;-79
2021/06/27 06:18:35;;;;;;;6.82;3.80;;;;;;;27.73;39.30;92794.81;4762529;30;20060;-79
2021/06/27 06:21:02;;;;;;;7.03;3.78;;;;;;;27.19;38.99;92797.50;4762412;30;20135;-79
2021/06/27 06:23:28;;;;;;;6.93;4.15;;;;;;;27.92;38.06;92805.19;4761807;30;20024;-79
2021/06/27 06:25:54;;;;;;;7.45;3.92;;;;;;;28.89;36.87;92802.16;4750504;30;20055;-79
2021/06/27 06:28:20;;;;;;;8.65;4.05;;;;;;;29.15;36.29;92798.16;4744766;30;20106;-79
2021/06/27 06:30:47;;;;;;;7.85;3.97;;;;;;;28.63;37.65;92800.75;4756218;30;20538;-78
2021/06/27 06:33:13;;;;;;;10.63;4.13;;;;;;;28.42;38.82;92796.97;4762734;30;20048;-78
2021/06/27 06:35:43;;;;;;;10.52;4.70;;;;;;;29.27;37.59;92800.41;4762757;30;20048;-79
2021/06/27 06:38:09;;;;;;;14.07;4.72;;;;;;;28.95;39.12;92800.56;4762503;30;20055;-78
2021/06/27 06:40:37;;;;;;;9.63;5.00;;;;;;;27.75;41.82;92809.41;4761966;30;20044;-79
2021/06/27 06:43:03;;;;;;;6.95;4.80;;;;;;;26.08;46.24;92807.91;4743212;30;20067;-77
2021/06/27 06:45:31;;;;;;;9.63;4.85;;;;;;;25.10;48.80;92813.66;4749793;30;20064;-77
2021/06/27 06:47:57;;;;;;;8.30;5.13;;;;;;;23.92;52.67;92812.31;4749042;30;20074;-77
2021/06/27 06:50:24;;;;;;;9.55;5.03;;;;;;;23.01;55.02;92820.03;4744307;30;20044;-77
2021/06/27 06:52:50;;;;;;;8.85;4.90;;;;;;;22.21;58.80;92817.78;4746288;30;20052;-78
2021/06/27 06:55:16;;;;;;;10.93;4.88;;;;;;;22.26;57.23;92821.31;4745892;30;20214;-77
2021/06/27 06:57:42;;;;;;;9.63;4.65;;;;;;;22.23;57.31;92828.88;4734878;30;20048;-77
2021/06/27 07:00:11;;;;;;;7.85;4.88;;;;;;;22.17;57.20;92832.16;4756200;30;20098;-77
2021/06/27 07:02:37;;;;;;;9.65;4.85;;;;;;;22.47;56.52;92835.06;4766262;30;20055;-77
2021/06/27 07:05:05;;;;;;;10.40;4.68;;;;;;;23.02;53.32;92842.97;4769908;30;20605;-77
2021/06/27 07:07:30;;;;;;;12.45;4.90;;;;;;;23.53;52.20;92834.63;4771265;30;20516;-78
2021/06/27 07:09:56;;;;;;;8.43;4.25;;;;;;;23.92;50.48;92831.03;4768418;30;20043;-77
2021/06/27 07:12:22;;;;;;;8.52;4.43;;;;;;;24.03;49.79;92834.63;4785885;29;20059;-78
2021/06/27 07:14:47;;;;;;;9.20;4.90;;;;;;;24.10;52.19;92840.06;4777871;29;22058;-78
2021/06/27 07:17:13;;;;;;;7.57;4.60;;;;;;;24.27;51.52;92836.84;4780998;29;20039;-78
2021/06/27 07:19:39;;;;;;;8.20;4.63;;;;;;;24.15;52.11;92841.63;4779156;30;20531;-77
2021/06/27 07:22:05;;;;;;;7.65;4.40;;;;;;;24.33;51.44;92844.53;4780240;30;20059;-79
2021/06/27 07:24:30;;;;;;;14.63;4.45;;;;;;;24.43;50.67;92841.22;4778814;29;20054;-79
2021/06/27 07:26:56;;;;;;;8.43;4.75;;;;;;;24.88;49.45;92842.13;4786838;29;20569;-80
2021/06/27 07:29:22;;;;;;;9.75;4.20;;;;;;;25.36;48.52;92836.09;4776964;30;20166;-81
2021/06/27 07:31:48;;;;;;;7.95;4.38;;;;;;;24.51;48.69;92843.63;4794010;29;20585;-79
2021/06/27 07:34:14;;;;;;;7.30;4.65;;;;;;;24.03;52.25;92840.72;4786989;30;20248;-80
2021/06/27 07:36:40;;;;;;;13.48;5.20;;;;;;;23.61;54.59;92844.28;4778182;29;20062;-79
2021/06/27 07:39:06;;;;;;;6.63;4.88;;;;;;;23.09;56.36;92842.31;4762572;30;20614;-81
2021/06/27 07:41:32;;;;;;;8.20;5.18;;;;;;;22.55;57.73;92846.66;4789513;30;20046;-79
2021/06/27 07:43:58;;;;;;;9.57;5.20;;;;;;;22.17;58.82;92843.59;4786624;30;20082;-79
2021/06/27 07:46:23;;;;;;;10.75;5.60;;;;;;;22.56;57.35;92837.50;4766790;30;20141;-78
2021/06/27 07:48:49;;;;;;;8.93;5.30;;;;;;;23.16;55.97;92835.19;4783190;30;20063;-78
2021/06/27 07:51:15;;;;;;;9.93;5.25;;;;;;;23.32;56.44;92837.72;4788826;29;20058;-77
2021/06/27 07:53:40;;;;;;;8.02;5.28;;;;;;;22.68;57.77;92840.03;4788770;29;20055;-78
2021/06/27 07:56:06;;;;;;;8.80;5.50;;;;;;;22.65;58.97;92840.72;4785452;30;20046;-78
2021/06/27 07:58:32;;;;;;;7.55;5.38;;;;;;;22.83;58.55;92835.72;4784983;29;20047;-78
2021/06/27 08:00:58;;;;;;;6.82;4.97;;;;;;;22.82;58.02;92829.63;4772462;30;20541;-79
2021/06/27 08:03:23;;;;;;;9.65;5.72;;;;;;;22.69;56.19;92830.91;4767040;30;20138;-77
2021/06/27 08:05:50;;;;;;;10.93;5.13;;;;;;;22.75;57.95;92837.50;4765783;30;20392;-76
2021/06/27 08:08:15;;;;;;;9.77;5.10;;;;;;;23.04;56.88;92833.47;4752424;30;20357;-80
2021/06/27 08:10:42;;;;;;;9.18;4.78;;;;;;;23.01;57.36;92828.06;4765925;30;20069;-79
2021/06/27 08:13:08;;;;;;;10.15;5.25;;;;;;;22.78;56.71;92828.78;4751681;30;20067;-77
2021/06/27 08:15:34;;;;;;;11.55;5.07;;;;;;;22.79;56.76;92833.00;4767518;30;20052;-80
2021/06/27 08:17:59;;;;;;;7.38;5.15;;;;;;;22.87;56.39;92833.88;4767769;30;20070;-79
2021/06/27 08:20:26;;;;;;;10.80;5.13;;;;;;;22.74;57.21;92833.28;4767163;30;20533;-80
2021/06/27 08:22:52;;;;;;;11.15;5.22;;;;;;;23.16;55.28;92842.44;4766019;30;20083;-79
2021/06/27 08:25:19;;;;;;;9.57;5.30;;;;;;;23.33;55.13;92836.63;4761751;30;20075;-80
2021/06/27 08:27:46;;;;;;;10.35;5.35;;;;;;;22.70;56.37;92842.34;4768319;30;20544;-80
2021/06/27 08:30:14;;;;;;;17.73;5.38;;;;;;;23.19;55.85;92839.81;4766880;30;20487;-78
2021/06/27 08:32:45;;;;;;;13.07;5.43;;;;;;;23.60;54.55;92839.31;4754725;30;20458;-79
2021/06/27 08:35:13;;;;;;;11.98;5.60;;;;;;;23.48;54.46;92843.72;4765558;30;20055;-80
2021/06/27 08:37:39;;;;;;;9.75;5.25;;;;;;;23.93;53.50;92835.22;4752848;30;20148;-80
2021/06/27 08:40:06;;;;;;;7.95;4.97;;;;;;;24.04;53.03;92834.22;4766983;30;20506;-78
2021/06/27 08:42:32;;;;;;;8.90;4.63;;;;;;;24.32;52.79;92835.75;4766935;30;20058;-80
2021/06/27 08:44:58;;;;;;;8.88;4.80;;;;;;;23.47;54.31;92842.16;4768212;30;20048;-81
2021/06/27 08:47:23;;;;;;;17.77;5.60;;;;;;;23.77;53.49;92838.81;4768758;30;20113;-79
2021/06/27 08:49:51;;;;;;;9.55;5.25;;;;;;;23.74;53.84;92839.53;4766865;30;20055;-81
2021/06/27 08:52:21;;;;;;;9.05;5.15;;;;;;;23.80;54.54;92840.00;4766995;30;20151;-77
2021/06/27 08:54:49;;;;;;;7.47;5.10;;;;;;;23.82;53.59;92837.75;4754598;30;20056;-78
2021/06/27 08:57:16;;;;;;;8.57;5.05;;;;;;;24.19;53.72;92827.19;4767655;30;20259;-79
2021/06/27 08:59:42;;;;;;;10.98;4.90;;;;;;;24.56;53.00;92834.50;4750655;29;20060;-78
2021/06/27 09:02:09;;;;;;;8.75;5.00;;;;;;;24.17;53.13;92834.78;4782023;30;20059;-78
2021/06/27 09:04:40;;;;;;;8.30;4.85;;;;;;;24.21;52.35;92827.59;4786796;30;20047;-78
2021/06/27 09:07:32;;;;;;;7.60;5.00;;;;;;;24.20;52.01;92830.63;4785065;29;20054;-80
2021/06/27 09:10:07;;;;;;;9.82;5.13;;;;;;;24.30;52.84;92835.34;4784703;30;20414;-80
2021/06/27 09:12:55;;;;;;;9.40;5.10;;;;;;;23.88;53.87;92838.97;4784201;29;20051;-80
2021/06/27 09:15:35;;;;;;;10.05;5.03;;;;;;;23.96;53.43;92845.19;4767816;30;20055;-78
2021/06/27 09:18:06;;;;;;;9.45;4.80;;;;;;;23.27;54.30;92838.03;4787219;30;20068;-80
2021/06/27 09:20:34;;;;;;;9.13;5.20;;;;;;;23.54;54.57;92844.19;4791149;30;20494;-80
2021/06/27 09:23:00;;;;;;;10.07;4.93;;;;;;;23.78;53.46;92839.63;4769623;30;20354;-80
2021/06/27 09:25:28;;;;;;;11.13;5.25;;;;;;;23.37;52.75;92834.78;4776468;30;20453;-81
2021/06/27 09:27:58;;;;;;;9.98;5.22;;;;;;;23.62;53.11;92834.38;4759305;30;20950;-78
2021/06/27 09:30:24;;;;;;;9.25;5.10;;;;;;;24.17;52.08;92837.47;4789431;30;20130;-81
2021/06/27 09:33:05;;;;;;;8.40;4.97;;;;;;;24.50;51.36;92846.69;4789755;30;20138;-79
2021/06/27 09:35:46;;;;;;;6.88;4.20;;;;;;;24.34;48.84;92838.03;4784533;30;20100;-78
2021/06/27 09:38:30;;;;;;;9.03;4.73;;;;;;;24.78;50.67;92829.41;4787965;30;20066;-78
2021/06/27 09:40:56;;;;;;;6.75;4.32;;;;;;;24.70;48.83;92840.03;4787076;29;20308;-79
2021/06/27 09:43:22;;;;;;;9.00;4.00;;;;;;;24.78;47.28;92835.53;4786991;30;20040;-79
2021/06/27 09:45:56;;;;;;;8.68;4.50;;;;;;;24.70;47.94;92834.69;4788814;30;20054;-78
2021/06/27 09:48:23;;;;;;;7.15;4.18;;;;;;;24.32;47.82;92830.41;4758372;30;20043;-78
2021/06/27 09:50:49;;;;;;;10.05;3.90;;;;;;;24.09;45.92;92819.78;4788453;29;20051;-77
2021/06/27 09:53:38;;;;;;;13.15;4.43;;;;;;;23.84;47.23;92822.88;4769078;30;20414;-77
2021/06/27 09:56:09;;;;;;;9.07;4.43;;;;;;;24.14;48.89;92826.72;4782617;29;20054;-78
2021/06/27 09:59:03;;;;;;;9.27;4.60;;;;;;;24.21;49.46;92824.91;4788477;30;20047;-77
2021/06/27 10:01:30;;;;;;;;;;;;;;;24.02;45.82;92822.34;4766307;30;20059;-76
2021/06/27 10:04:01;;;;;;;11.77;3.97;;;;;;;24.12;45.58;92821.75;4766049;30;19926;-75
2021/06/27 10:06:47;;;;;;;22.45;5.30;;;;;;;24.36;44.74;92819.72;4769780;30;20040;-79
2021/06/27 10:09:21;;;;;;;73.50;10.40;;;;;;;24.93;44.31;92825.75;4746630;30;20068;-78
2021/06/27 10:11:59;;;;;;;;;;;;;;;25.10;42.79;92814.41;4763584;30;20054;-77
2021/06/27 10:14:34;;;;;;;8.45;3.70;;;;;;;24.61;41.29;92826.19;4769629;30;19968;-77
2021/06/27 10:17:03;;;;;;;9.80;3.70;;;;;;;24.73;43.57;92828.59;4767170;30;20554;-77
2021/06/27 10:19:29;;;;;;;9.77;4.55;;;;;;;24.59;45.00;92819.63;4768802;30;20122;-77
2021/06/27 10:21:57;;;;;;;7.57;3.80;;;;;;;24.87;43.27;92825.28;4758003;30;20455;-77
2021/06/27 10:24:24;;;;;;;8.65;3.97;;;;;;;25.28;43.87;92819.94;4752064;30;20055;-79
2021/06/27 10:26:51;;;;;;;8.90;3.83;;;;;;;25.58;42.60;92816.38;4768231;30;20079;-80
2021/06/27 10:29:21;;;;;;;10.38;3.20;;;;;;;25.74;42.76;92810.72;4760253;30;20044;-82
2021/06/27 10:31:51;;;;;;;7.43;3.72;;;;;;;25.81;41.92;92813.47;4773470;30;20050;-78
2021/06/27 10:34:17;;;;;;;6.82;3.60;;;;;;;26.17;40.25;92806.41;4776642;30;20098;-76
2021/06/27 10:36:45;;;;;;;8.57;3.55;;;;;;;25.47;41.69;92815.53;4782258;30;20052;-77
2021/06/27 10:39:14;;;;;;;7.95;4.00;;;;;;;25.71;44.21;92800.75;4783457;30;20450;-79
2021/06/27 10:41:59;;;;;;;7.65;4.28;;;;;;;26.17;43.39;92808.31;4778113;30;20054;-78
2021/06/27 10:44:49;;;;;;;9.93;4.72;;;;;;;26.72;42.01;92804.72;4767287;30;20067;-79
2021/06/27 10:47:30;;;;;;;12.30;4.47;;;;;;;26.28;42.66;92811.06;4758243;30;20676;-80
2021/06/27 10:49:56;;;;;;;7.40;3.70;;;;;;;25.80;41.99;92805.78;4773960;30;20352;-82
2021/06/27 10:52:23;;;;;;;8.88;3.85;;;;;;;26.10;41.21;92805.59;4777117;30;20051;-80
2021/06/27 10:55:16;;;;;;;7.40;3.97;;;;;;;25.88;43.10;92800.13;4759378;30;20051;-80
2021/06/27 10:58:15;;;;;;;7.50;3.88;;;;;;;25.70;41.54;92801.91;4770794;30;20060;-80
2021/06/27 11:00:56;;;;;;;12.25;4.13;;;;;;;25.87;42.00;92801.28;4768225;30;20084;-80
2021/06/27 11:03:33;;;;;;;8.18;4.10;;;;;;;25.97;41.90;92802.47;4773864;30;20047;-78
2021/06/27 11:06:01;;;;;;;10.70;4.40;;;;;;;25.27;43.78;92801.59;4788612;29;20051;-81
2021/06/27 11:08:33;;;;;;;8.10;4.75;;;;;;;25.28;43.31;92808.47;4794043;30;20591;-77
2021/06/27 11:11:02;;;;;;;9.43;4.45;;;;;;;25.59;42.74;92807.19;4795612;29;20268;-78
2021/06/27 11:13:29;;;;;;;10.68;5.10;;;;;;;24.80;44.52;92811.06;4794659;30;20039;-79
2021/06/27 11:16:03;;;;;;;9.20;5.00;;;;;;;24.56;44.02;92813.09;4799639;30;20050;-79
2021/06/27 11:18:38;;;;;;;11.27;4.60;;;;;;;25.07;44.67;92804.44;4784553;30;20051;-78
2021/06/27 11:21:15;;;;;;;10.77;4.50;;;;;;;25.17;43.56;92802.22;4798113;29;20558;-78
2021/06/27 11:23:48;;;;;;;7.75;4.80;;;;;;;25.64;43.63;92803.38;4792375;29;20051;-78
2021/06/27 11:26:41;;;;;;;14.05;5.35;;;;;;;26.18;43.21;92799.88;4784776;29;20074;-80
2021/06/27 11:29:22;;;;;;;9.32;4.65;;;;;;;25.58;44.54;92810.22;4788393;29;20074;-78
2021/06/27 11:32:09;;;;;;;8.70;4.90;;;;;;;25.50;44.00;92804.06;4789976;29;20057;-78
2021/06/27 11:34:36;;;;;;;14.82;4.80;;;;;;;26.16;43.28;92798.72;4781386;29;20193;-81
2021/06/27 11:37:20;;;;;;;9.48;4.80;;;;;;;25.44;43.65;92800.94;4772355;30;20047;-81
2021/06/27 11:39:59;;;;;;;9.10;4.72;;;;;;;25.86;44.13;92788.97;4785404;29;20047;-79
2021/06/27 11:42:27;;;;;;;8.40;4.40;;;;;;;25.68;43.19;92796.13;4785967;29;20043;-78
2021/06/27 11:45:05;;;;;;;11.93;4.75;;;;;;;26.30;41.77;92796.13;4789941;29;20038;-80
2021/06/27 11:47:32;;;;;;;9.45;4.75;;;;;;;25.46;44.40;92798.66;4787271;29;20043;-80
2021/06/27 11:49:58;;;;;;;8.40;4.80;;;;;;;25.66;44.87;92788.47;4772421;30;20067;-81
2021/06/27 11:52:24;;;;;;;9.27;4.80;;;;;;;26.14;44.24;92784.91;4773592;30;20055;-81
2021/06/27 11:54:50;;;;;;;9.98;5.13;;;;;;;26.32;45.24;92787.66;4789595;30;20107;-79
2021/06/27 11:57:16;;;;;;;7.63;4.85;;;;;;;25.93;42.90;92788.25;4772376;30;20051;-80
2021/06/27 11:59:53;;;;;;;9.18;4.80;;;;;;;25.70;42.88;92793.84;4769765;30;20059;-78
2021/06/27 12:02:26;;;;;;;10.20;4.95;;;;;;;25.32;43.96;92798.56;4752380;30;20058;-78
2021/06/27 12:04:53;;;;;;;12.25;4.80;;;;;;;25.67;45.30;92786.53;4754021;30;20059;-79
2021/06/27 12:07:36;;;;;;;12.15;5.22;;;;;;;25.62;44.20;92793.03;4771060;30;20529;-79
2021/06/27 12:10:17;;;;;;;11.57;5.15;;;;;;;25.69;44.44;92794.97;4772195;30;20051;-80
2021/06/27 12:17:22;;;;;;;10.02;4.85;;;;;;;26.01;44.02;92799.78;4727235;30;20044;-80
2021/06/27 12:27:32;;;;;;;11.73;5.53;;;;;;;25.42;45.92;92795.19;4682802;30;20313;-79
2021/06/27 12:29:58;;;;;;;10.73;5.10;;;;;;;25.96;46.67;92788.28;4717204;30;20067;-80
2021/06/27 12:32:27;;;;;;;12.88;5.75;;;;;;;26.67;44.73;92783.59;4719194;30;20069;-81
2021/06/27 12:34:54;;;;;;;9.57;5.30;;;;;;;27.10;43.73;92781.75;4744383;30;20078;-80
2021/06/27 12:37:20;;;;;;;11.43;6.00;;;;;;;27.23;41.88;92787.56;4768015;30;20079;-80
2021/06/27 12:39:46;;;;;;;21.80;6.63;;;;;;;27.10;45.10;92779.06;4771547;30;20560;-80
2021/06/27 12:42:17;;;;;;;9.50;5.72;;;;;;;27.02;43.57;92784.81;4772577;30;20091;-80
2021/06/27 12:44:43;;;;;;;14.68;5.53;;;;;;;27.01;43.72;92789.41;4770933;30;20139;-80
2021/06/27 12:47:09;;;;;;;8.88;5.53;;;;;;;27.33;43.34;92778.72;4756595;30;20780;-78
2021/06/27 12:49:36;;;;;;;12.98;5.53;;;;;;;27.50;44.18;92787.94;4774717;30;20036;-80
2021/06/27 12:52:09;;;;;;;67.95;12.07;;;;;;;28.12;42.04;92777.84;4762961;30;20063;-81
2021/06/27 12:54:36;;;;;;;23.70;6.47;;;;;;;27.68;43.47;92781.78;4776132;30;20067;-81
2021/06/27 12:57:21;;;;;;;10.07;6.18;;;;;;;27.88;40.05;92779.47;4759356;30;20048;-78
2021/06/27 12:59:50;;;;;;;73.63;12.80;;;;;;;27.84;42.01;92771.38;4779126;29;20113;-79
2021/06/27 13:02:22;;;;;;;12.88;5.88;;;;;;;28.11;40.80;92770.94;4803200;29;20524;-81
2021/06/27 13:04:47;;;;;;;167.23;20.80;;;;;;;28.28;40.34;92780.88;4794615;30;20427;-79
2021/06/27 13:07:15;;;;;;;163.13;18.52;;;;;;;28.41;39.98;92773.88;4775329;30;20047;-79
2021/06/27 13:10:05;;;;;;;15.13;6.32;;;;;;;28.29;38.41;92782.41;4788404;30;20112;-79
2021/06/27 13:12:35;;;;;;;13.30;5.65;;;;;;;27.86;42.23;92777.16;4794340;29;20047;-80
2021/06/27 13:15:21;;;;;;;12.60;5.88;;;;;;;27.75;40.60;92782.53;4778938;30;20062;-79
2021/06/27 13:17:52;;;;;;;11.93;5.03;;;;;;;27.76;41.67;92783.28;4788482;30;20043;-78
2021/06/27 13:20:27;;;;;;;14.50;5.88;;;;;;;27.75;41.39;92784.44;4790026;30;20091;-78
2021/06/27 13:22:53;;;;;;;10.23;5.82;;;;;;;27.45;41.04;92793.69;4791283;30;20118;-79
2021/06/27 13:25:34;;;;;;;12.45;5.70;;;;;;;27.14;42.47;92771.78;4785756;30;20486;-79
2021/06/27 13:28:00;;;;;;;9.40;5.38;;;;;;;27.09;43.37;92780.22;4787036;30;20104;-76
2021/06/27 13:30:26;;;;;;;10.10;5.60;;;;;;;26.13;46.37;92772.66;4793028;30;20075;-78
2021/06/27 13:33:09;;;;;;;11.32;5.72;;;;;;;26.14;43.80;92771.50;4777315;30;20055;-79
2021/06/27 13:35:37;;;;;;;9.65;5.72;;;;;;;26.02;44.96;92777.97;4756251;30;20060;-78
2021/06/27 13:38:05;;;;;;;13.80;5.75;;;;;;;26.84;42.88;92779.41;4793841;30;20047;-77
2021/06/27 13:40:33;;;;;;;10.77;5.30;;;;;;;27.50;41.47;92776.41;4793802;29;20215;-79
2021/06/27 13:42:59;;;;;;;13.68;6.07;;;;;;;27.55;40.90;92776.78;4794275;30;20114;-78
2021/06/27 13:45:25;;;;;;;10.77;5.38;;;;;;;27.75;40.78;92777.13;4775528;30;20054;-78
2021/06/27 13:47:53;;;;;;;9.50;5.85;;;;;;;27.96;39.49;92776.34;4790800;29;20039;-78
2021/06/27 13:50:20;;;;;;;10.98;6.00;;;;;;;28.24;39.72;92770.13;4792045;29;20039;-79
2021/06/27 13:52:46;;;;;;;10.68;5.93;;;;;;;27.79;41.16;92769.06;4793302;30;20545;-79
2021/06/27 13:55:15;;;;;;;11.57;5.88;;;;;;;27.07;42.72;92776.38;4793470;30;20058;-76
2021/06/27 13:57:44;;;;;;;11.40;6.05;;;;;;;27.13;44.09;92775.63;4795224;30;20090;-80
2021/06/27 14:00:12;;;;;;;8.35;5.50;;;;;;;27.64;42.08;92776.38;4787308;30;20121;-78
2021/06/27 14:02:39;;;;;;;11.60;5.78;;;;;;;27.13;41.12;92772.94;4773030;30;20203;-79
2021/06/27 14:05:07;;;;;;;9.75;5.80;;;;;;;27.45;42.98;92769.50;4773667;30;20044;-79
2021/06/27 14:07:33;;;;;;;9.77;5.35;;;;;;;27.65;41.80;92783.31;4774625;30;20555;-79
2021/06/27 14:09:59;;;;;;;7.97;5.80;;;;;;;27.95;40.77;92774.81;4773758;30;20115;-78
2021/06/27 14:12:25;;;;;;;12.77;6.13;;;;;;;28.06;40.52;92774.81;4773231;30;20087;-79
2021/06/27 14:14:50;;;;;;;11.20;5.60;;;;;;;28.06;40.32;92768.66;4771010;30;20064;-79
2021/06/27 14:17:16;;;;;;;11.93;5.70;;;;;;;27.31;43.74;92769.50;4770651;30;20109;-76
2021/06/27 14:19:42;;;;;;;15.35;6.20;;;;;;;26.74;42.44;92770.19;4771110;30;20044;-78
2021/06/27 14:22:09;;;;;;;10.95;6.30;;;;;;;26.41;42.34;92763.94;4773474;30;20131;-80
2021/06/27 14:24:35;;;;;;;12.50;6.38;;;;;;;27.07;41.71;92763.72;4769276;30;20055;-79
2021/06/27 14:27:01;;;;;;;14.10;5.80;;;;;;;27.19;43.33;92767.94;4767996;30;20059;-78
2021/06/27 14:29:28;;;;;;;11.90;6.47;;;;;;;27.41;43.23;92763.38;4767361;30;20154;-79
2021/06/27 14:31:54;;;;;;;10.20;5.60;;;;;;;27.14;44.58;92757.59;4768530;30;20101;-79
2021/06/27 14:34:19;;;;;;;10.63;5.70;;;;;;;26.76;45.36;92763.28;4773080;30;20047;-80
2021/06/27 14:36:45;;;;;;;11.07;5.45;;;;;;;26.87;44.90;92762.56;4754318;30;20083;-77
2021/06/27 14:39:12;;;;;;;13.27;5.70;;;;;;;26.99;44.97;92751.41;4772438;30;20054;-79
2021/06/27 14:41:38;;;;;;;10.50;5.43;;;;;;;27.29;44.82;92758.34;4769769;30;20059;-80
2021/06/27 14:44:04;;;;;;;12.10;6.10;;;;;;;26.60;44.69;92757.50;4767105;30;20384;-80
2021/06/27 14:46:30;;;;;;;15.73;6.00;;;;;;;26.51;44.89;92752.47;4754460;30;20078;-81
2021/06/27 14:48:57;;;;;;;11.60;6.00;;;;;;;26.85;43.60;92760.25;4770657;30;20103;-80
2021/06/27 14:51:23;;;;;;;11.75;6.25;;;;;;;26.98;44.10;92757.97;4771257;30;20031;-80
2021/06/27 14:53:48;;;;;;;11.65;5.30;;;;;;;27.05;44.65;92757.97;4770117;30;20418;-78
2021/06/27 14:56:14;;;;;;;10.20;5.68;;;;;;;26.88;45.87;92762.16;4768904;30;20326;-79
2021/06/27 14:58:41;;;;;;;9.40;5.93;;;;;;;26.44;45.50;92759.75;4766031;30;20118;-80
2021/06/27 15:01:08;;;;;;;8.98;5.90;;;;;;;26.54;45.93;92756.31;4778960;30;20086;-79
2021/06/27 15:03:35;;;;;;;10.93;5.88;;;;;;;26.69;46.19;92752.53;4788164;30;20127;-79
2021/06/27 15:06:01;;;;;;;9.80;5.97;;;;;;;26.58;46.30;92754.44;4787645;30;20115;-80
2021/06/27 15:08:27;;;;;;;8.45;5.88;;;;;;;26.72;46.32;92751.78;4787707;30;20047;-80
2021/06/27 15:10:53;;;;;;;12.32;6.40;;;;;;;26.67;45.64;92754.06;4788453;30;20043;-80
2021/06/27 15:13:18;;;;;;;10.80;5.80;;;;;;;26.89;45.33;92754.88;4787860;29;20039;-79
2021/06/27 15:15:44;;;;;;;11.60;5.55;;;;;;;27.12;45.18;92757.19;4769111;30;20059;-79
2021/06/27 15:18:10;;;;;;;12.45;6.20;;;;;;;27.36;43.92;92761.06;4788354;30;20115;-79
2021/06/27 15:20:36;;;;;;;11.93;5.90;;;;;;;27.16;45.44;92766.03;4780830;30;20052;-78
2021/06/27 15:23:01;;;;;;;9.48;5.90;;;;;;;26.88;45.44;92762.16;4787716;29;20039;-79
2021/06/27 15:25:27;;;;;;;12.90;5.80;;;;;;;26.84;46.23;92763.28;4783535;29;20384;-79
2021/06/27 15:27:53;;;;;;;11.73;6.03;;;;;;;26.65;45.94;92764.44;4785878;30;20053;-80
2021/06/27 15:30:20;;;;;;;10.60;5.90;;;;;;;26.60;46.52;92765.56;4785723;30;20423;-76
2021/06/27 15:32:46;;;;;;;10.00;5.93;;;;;;;26.67;47.28;92757.53;4783076;29;20523;-80
2021/06/27 15:35:12;;;;;;;12.90;5.95;;;;;;;26.73;46.39;92758.69;4789351;29;20080;-79
2021/06/27 15:37:38;;;;;;;11.10;5.70;;;;;;;26.87;45.80;92757.19;4787753;29;20558;-81
2021/06/27 15:40:08;;;;;;;13.15;6.18;;;;;;;27.06;46.05;92759.47;4790001;29;20051;-81
2021/06/27 15:42:36;;;;;;;12.25;6.50;;;;;;;27.29;45.56;92761.06;4782797;29;20063;-80
2021/06/27 15:45:03;;;;;;;12.30;6.20;;;;;;;27.31;44.66;92764.91;4783066;29;20149;-81
2021/06/27 15:47:29;;;;;;;22.20;11.20;;;;;;;27.25;44.81;92754.94;4783075;29;20096;-82
2021/06/27 15:49:54;;;;;;;12.88;7.00;;;;;;;27.26;45.07;92756.44;4771592;29;20051;-83
2021/06/27 15:52:20;;;;;;;51.38;33.17;;;;;;;27.43;44.53;92753.00;4769778;29;20059;-77
2021/06/27 15:54:46;;;;;;;18.52;11.85;;;;;;;27.68;43.46;92746.81;4786244;29;20130;-81
2021/06/27 15:57:11;;;;;;;723.38;435.33;;;;;;;27.86;43.85;92750.25;4793998;29;20085;-82
2021/06/27 15:59:37;;;;;;;123.35;108.97;;;;;;;28.11;42.51;92744.78;4785108;29;20047;-81
2021/06/27 16:02:04;;;;;;;941.83;756.55;;;;;;;28.16;42.72;92751.69;4781674;29;20066;-83
2021/06/27 16:04:31;;;;;;;916.67;601.90;;;;;;;28.36;42.35;92750.06;4789823;29;20628;-83
2021/06/27 16:06:57;;;;;;;580.35;429.20;;;;;;;28.50;42.45;92756.56;4799460;29;20172;-82
2021/06/27 16:09:22;;;;;;;123.97;72.18;;;;;;;28.60;41.34;92748.44;4790189;29;20048;-82
2021/06/27 16:11:48;;;;;;;134.30;44.53;;;;;;;28.90;40.86;92749.03;4788206;29;20078;-82
2021/06/27 16:14:14;;;;;;;52.67;25.23;;;;;;;28.96;40.35;92750.91;4769715;29;20090;-81
2021/06/27 16:16:39;;;;;;;16.50;7.05;;;;;;;28.65;41.07;92745.34;4789513;29;20067;-82
2021/06/27 16:19:06;;;;;;;48.15;21.35;;;;;;;28.62;42.27;92751.50;4773390;30;20511;-82
2021/06/27 16:21:34;;;;;;;116.10;48.33;;;;;;;28.63;42.58;92747.66;4787903;29;20051;-81
2021/06/27 16:24:01;;;;;;;22.10;13.63;;;;;;;28.71;41.89;92753.78;4771600;29;20059;-83
2021/06/27 16:26:29;;;;;;;69.20;37.00;;;;;;;28.78;41.92;92748.34;4792963;29;20455;-80
2021/06/27 16:28:56;;;;;;;50.00;29.85;;;;;;;28.77;41.67;92746.03;4791525;29;20043;-81
2021/06/27 16:31:24;;;;;;;20.45;13.82;;;;;;;28.65;41.91;92745.34;4789918;29;20147;-83
2021/06/27 16:33:51;;;;;;;48.92;35.42;;;;;;;28.47;41.92;92749.25;4788771;29;20055;-78
2021/06/27 16:36:18;;;;;;;16.77;8.95;;;;;;;28.42;42.40;92747.75;4793065;29;20043;-81
2021/06/27 16:38:44;;;;;;;23.60;11.80;;;;;;;28.24;42.63;92743.19;4792885;29;20043;-81
2021/06/27 16:41:10;;;;;;;14.05;9.02;;;;;;;28.14;43.55;92743.25;4780723;29;20058;-81
2021/06/27 16:43:36;;;;;;;13.32;7.82;;;;;;;27.97;43.84;92737.53;4799228;29;20044;-80
2021/06/27 16:46:03;;;;;;;15.60;7.90;;;;;;;28.14;42.98;92737.84;4786390;29;20055;-80
2021/06/27 16:48:29;;;;;;;13.75;7.55;;;;;;;28.36;43.16;92736.59;4793671;29;20062;-83